Time;durP1;ratioP1;P1;durP2;ratioP2;P2;SDS_P1;SDS_P2;PMS_P1;PMS_P2;Temp;Humidity;BMP_temperature;BMP_pressure;BME280_temperature;BME280_humidity;BME280_pressure;Samples;Min_cycle;Max_cycle;Signal;HPM_P1;HPM_P2
2022/08/23 00:02:01;;;;;;;7.97;2.90;;;;;;;18.00;91.37;100710.02;1772277;80;25792;-61
2022/08/23 00:04:35;;;;;;;5.40;2.30;;;;;;;17.98;91.39;100708.78;1774503;80;98722;-60
2022/08/23 00:07:04;;;;;;;8.53;2.33;;;;;;;17.99;91.33;100716.42;1768763;80;26397;-60
2022/08/23 00:09:30;;;;;;;7.60;2.77;;;;;;;17.98;91.23;100713.33;1764765;80;98709;-60
2022/08/23 00:12:17;;;;;;;6.42;2.35;;;;;;;17.99;91.23;100717.78;1764849;80;54331;-60
2022/08/23 00:14:48;;;;;;;8.25;2.58;;;;;;;17.99;91.18;100711.86;1767561;80;98899;-61
2022/08/23 00:17:15;;;;;;;;;;;;;;;17.97;91.19;100711.59;1772773;80;28300;-60
2022/08/23 00:19:41;;;;;;;3.95;2.15;;;;;;;17.96;91.13;100704.44;1771856;80;27162;-61
2022/08/23 00:22:09;;;;;;;4.70;2.45;;;;;;;17.91;91.10;100707.49;1771958;80;99216;-60
2022/08/23 00:24:36;;;;;;;8.15;2.50;;;;;;;17.89;91.00;100697.24;1780117;80;26763;-61
2022/08/23 00:27:10;;;;;;;5.65;2.20;;;;;;;17.91;91.06;100695.77;1774051;80;99249;-60
2022/08/23 00:29:52;;;;;;;6.15;2.92;;;;;;;17.87;90.99;100691.55;1772802;80;27211;-61
2022/08/23 00:32:23;;;;;;;8.93;2.98;;;;;;;17.86;91.05;100688.47;1778715;79;26223;-60
2022/08/23 00:34:49;;;;;;;4.95;2.30;;;;;;;17.87;91.07;100688.84;1774070;79;98532;-60
2022/08/23 00:37:17;;;;;;;4.53;2.15;;;;;;;17.88;91.07;100683.80;1763734;80;25691;-60
2022/08/23 00:39:43;;;;;;;5.17;2.12;;;;;;;17.89;91.08;100680.97;1768392;80;98807;-61
2022/08/23 00:48:07;;;;;;;6.95;2.98;;;;;;;17.88;91.08;100687.86;1769342;80;25891;-61
2022/08/23 00:50:54;;;;;;;6.40;2.72;;;;;;;17.89;91.11;100680.97;1775387;79;98940;-62
2022/08/23 00:53:27;;;;;;;8.43;2.50;;;;;;;17.91;91.07;100679.02;1764016;80;25836;-61
2022/08/23 00:55:57;;;;;;;5.85;2.15;;;;;;;17.89;91.00;100683.69;1763468;79;27970;-61
2022/08/23 00:58:24;;;;;;;4.55;2.10;;;;;;;17.89;91.05;100678.75;1764868;79;98826;-61
2022/08/23 01:00:53;;;;;;;5.62;2.50;;;;;;;17.89;91.07;100678.75;1770343;79;26408;-61
2022/08/23 01:03:22;;;;;;;9.35;2.15;;;;;;;17.87;91.05;100678.00;1768217;80;98822;-61
2022/08/23 01:06:14;;;;;;;4.55;2.08;;;;;;;17.86;91.08;100676.27;1762221;80;26649;-61
2022/08/23 01:08:45;;;;;;;3.30;1.85;;;;;;;17.86;91.11;100678.98;1761599;80;98904;-61
2022/08/23 01:11:20;;;;;;;4.67;2.37;;;;;;;17.85;91.12;100678.11;1778803;79;25704;-61
2022/08/23 01:13:51;;;;;;;5.92;2.20;;;;;;;17.83;91.03;100682.78;1758653;80;25904;-61
2022/08/23 01:16:32;;;;;;;8.88;2.55;;;;;;;17.86;91.08;100691.17;1768990;80;98763;-61
2022/08/23 01:18:57;;;;;;;10.45;2.72;;;;;;;17.86;91.08;100690.69;1771350;80;26078;-61
2022/08/23 01:21:37;;;;;;;8.73;2.70;;;;;;;17.83;91.09;100694.48;1775144;80;98970;-61
2022/08/23 01:24:04;;;;;;;7.00;2.33;;;;;;;17.77;91.09;100681.37;1763520;80;25818;-60
2022/08/23 01:26:33;;;;;;;6.67;2.58;;;;;;;17.84;91.09;100689.44;1769046;79;25794;-61
2022/08/23 01:28:59;;;;;;;6.83;2.02;;;;;;;17.87;91.09;100689.70;1769486;80;97699;-61
2022/08/23 01:31:26;;;;;;;6.58;3.20;;;;;;;17.86;91.05;100688.47;1775555;80;25825;-61
2022/08/23 01:34:00;;;;;;;4.87;2.67;;;;;;;17.87;91.09;100689.70;1734489;80;98619;-61
2022/08/23 01:36:27;;;;;;;5.40;2.95;;;;;;;17.88;91.02;100689.22;1747056;81;26578;-60
2022/08/23 01:38:54;;;;;;;7.50;2.60;;;;;;;17.87;91.04;100684.78;1738967;81;100075;-61
2022/08/23 01:41:20;;;;;;;4.40;2.52;;;;;;;17.83;91.05;100680.93;1731052;81;25817;-61
2022/08/23 01:43:47;;;;;;;9.50;2.80;;;;;;;17.84;91.01;100689.94;1744688;81;25690;-61
2022/08/23 01:46:18;;;;;;;9.23;2.92;;;;;;;17.83;91.09;100689.55;1752393;80;99061;-60
2022/08/23 01:48:47;;;;;;;9.00;3.02;;;;;;;17.82;91.15;100694.11;1750619;80;25760;-61
2022/08/23 01:51:18;;;;;;;8.58;3.25;;;;;;;17.84;91.18;100686.73;1735936;80;98889;-61
2022/08/23 01:53:45;;;;;;;8.45;2.60;;;;;;;17.84;91.21;100690.80;1749939;81;25789;-61
2022/08/23 01:56:13;;;;;;;9.33;2.80;;;;;;;17.83;91.24;100693.13;1746881;80;25807;-61
2022/08/23 01:58:39;;;;;;;6.17;3.22;;;;;;;17.80;91.23;100693.36;1749095;80;98710;-62
2022/08/23 02:01:05;;;;;;;4.92;2.80;;;;;;;17.77;91.29;100694.06;1736832;81;25758;-61
2022/08/23 02:03:33;;;;;;;11.73;4.30;;;;;;;17.74;91.26;100695.16;1732487;81;98778;-61
2022/08/23 02:05:59;;;;;;;6.95;4.10;;;;;;;17.66;91.22;100696.69;1747694;81;25865;-60
2022/08/23 02:11:20;;;;;;;14.38;5.50;;;;;;;17.51;91.17;100698.62;1737319;80;98589;-60
2022/08/23 02:13:48;;;;;;;10.60;6.08;;;;;;;17.34;91.10;100698.45;1748599;81;25845;-59
2022/08/23 02:16:28;;;;;;;14.07;6.25;;;;;;;17.19;91.15;100688.21;1739427;80;98869;-59
2022/08/23 02:18:56;;;;;;;10.88;4.90;;;;;;;16.97;91.25;100683.91;1750343;80;25789;-58
2022/08/23 02:21:25;;;;;;;12.18;4.25;;;;;;;16.90;91.42;100688.02;1744010;80;99114;-58
2022/08/23 02:23:50;;;;;;;12.93;4.10;;;;;;;16.78;91.80;100684.31;1743421;81;27450;-59
2022/08/23 02:26:18;;;;;;;10.05;4.22;;;;;;;16.71;92.03;100687.54;1750027;80;26503;-59
2022/08/23 02:28:44;;;;;;;15.38;4.80;;;;;;;16.47;92.74;100661.63;1745572;80;99323;-59
2022/08/23 02:31:11;;;;;;;8.68;4.15;;;;;;;16.47;92.74;100661.63;1742556;81;25847;-58
2022/08/23 02:33:37;;;;;;;14.00;4.85;;;;;;;16.39;92.60;100659.43;1739894;80;98706;-59
2022/08/23 02:36:03;;;;;;;11.40;5.67;;;;;;;16.45;92.89;100675.25;1746386;80;27502;-59
2022/08/23 02:38:29;;;;;;;8.58;4.80;;;;;;;16.38;93.83;100683.88;1752162;81;25741;-58
2022/08/23 02:40:55;;;;;;;10.78;5.75;;;;;;;16.38;93.83;100683.88;1753963;80;98651;-58
2022/08/23 02:43:21;;;;;;;12.05;5.20;;;;;;;16.38;94.13;100693.34;1748130;81;25798;-59
2022/08/23 02:45:47;;;;;;;10.70;5.78;;;;;;;16.38;94.21;100690.16;1735801;80;98943;-58
2022/08/23 02:48:12;;;;;;;6.60;4.97;;;;;;;16.39;94.40;100689.19;1727025;81;27412;-58
2022/08/23 02:50:38;;;;;;;11.08;5.47;;;;;;;16.41;94.57;100695.36;1740687;80;25850;-59
2022/08/23 02:53:04;;;;;;;16.45;6.00;;;;;;;16.43;94.59;100692.08;1734236;80;98649;-59
2022/08/23 02:55:31;;;;;;;11.97;5.95;;;;;;;16.45;94.81;100698.25;1740302;80;25807;-58
2022/08/23 02:57:57;;;;;;;12.68;5.70;;;;;;;16.35;95.24;100674.62;1750648;80;98876;-58
2022/08/23 03:00:24;;;;;;;9.45;6.53;;;;;;;16.45;94.93;100696.03;1751923;80;27501;-58
2022/08/23 03:02:50;;;;;;;11.45;5.92;;;;;;;16.46;95.10;100703.17;1745019;80;99013;-58
2022/08/23 03:05:17;;;;;;;10.70;6.12;;;;;;;16.47;95.20;100703.07;1754375;80;25771;-59
2022/08/23 03:07:44;;;;;;;11.25;5.72;;;;;;;16.49;95.38;100709.25;1750466;80;26846;-58
2022/08/23 03:10:12;;;;;;;12.80;6.87;;;;;;;16.52;95.51;100711.75;1747174;79;98926;-58
2022/08/23 03:12:38;;;;;;;13.08;6.37;;;;;;;16.55;95.65;100714.73;1749639;80;27577;-58
2022/08/23 03:15:06;;;;;;;10.05;6.45;;;;;;;16.54;95.60;100713.87;1743429;80;99068;-58
2022/08/23 03:17:32;;;;;;;14.53;6.87;;;;;;;16.57;95.86;100723.62;1747516;80;25760;-61
2022/08/23 03:19:58;;;;;;;18.02;7.70;;;;;;;16.59;95.92;100723.52;1751331;80;26578;-61
2022/08/23 03:22:24;;;;;;;16.15;7.55;;;;;;;16.61;96.04;100725.63;1749910;80;98893;-61
2022/08/23 03:24:50;;;;;;;13.80;7.33;;;;;;;16.62;96.25;100727.38;1751073;79;27440;-58
2022/08/23 03:27:15;;;;;;;14.23;7.85;;;;;;;16.62;96.25;100727.38;1737410;79;99471;-58
2022/08/23 03:29:41;;;;;;;10.68;6.95;;;;;;;16.63;96.38;100716.44;1702708;81;25912;-59
2022/08/23 03:32:07;;;;;;;9.08;6.62;;;;;;;16.62;96.33;100721.47;1685084;82;25907;-58
2022/08/23 03:34:34;;;;;;;14.75;7.67;;;;;;;16.63;96.47;100718.28;1701826;82;99077;-58
2022/08/23 03:37:00;;;;;;;16.60;8.05;;;;;;;16.64;96.56;100714.60;1700754;82;28000;-58
2022/08/23 03:39:26;;;;;;;9.60;7.08;;;;;;;16.66;96.64;100712.70;1698964;82;99065;-58
2022/08/23 03:41:52;;;;;;;16.23;8.45;;;;;;;16.66;96.64;100712.70;1692631;82;25876;-58
2022/08/23 03:44:18;;;;;;;14.83;7.70;;;;;;;16.67;97.01;100719.36;1698434;83;26820;-59
2022/08/23 03:46:44;;;;;;;22.52;10.13;;;;;;;16.67;97.05;100719.36;1683435;83;98913;-59
2022/08/23 03:49:10;;;;;;;14.90;8.05;;;;;;;16.68;96.97;100732.41;1684602;83;27498;-58
2022/08/23 03:51:36;;;;;;;15.50;8.58;;;;;;;16.68;96.97;100732.41;1675516;82;98946;-59
2022/08/23 03:54:04;;;;;;;11.85;7.20;;;;;;;16.69;97.30;100730.08;1682064;83;26622;-59
2022/08/23 03:56:35;;;;;;;16.20;8.73;;;;;;;16.70;97.45;100730.46;1686369;83;25889;-59
2022/08/23 03:59:06;;;;;;;17.80;9.20;;;;;;;16.72;97.59;100727.17;1680011;83;98956;-61
2022/08/23 04:01:32;;;;;;;19.90;9.35;;;;;;;16.74;97.62;100730.16;1682020;83;28156;-59
2022/08/23 04:03:58;;;;;;;13.48;8.35;;;;;;;16.77;97.83;100733.14;1695594;82;98994;-61
2022/08/23 04:06:27;;;;;;;18.10;9.03;;;;;;;16.76;97.85;100730.05;1700509;83;25852;-59
2022/08/23 04:08:53;;;;;;;12.55;8.63;;;;;;;16.79;97.97;100735.25;1702628;83;99130;-59
2022/08/23 04:11:21;;;;;;;16.67;8.43;;;;;;;16.79;97.97;100735.25;1707909;82;25775;-59
2022/08/23 04:13:47;;;;;;;13.10;8.85;;;;;;;16.81;98.11;100731.95;1706161;83;27427;-59
2022/08/23 04:16:13;;;;;;;14.03;8.25;;;;;;;16.81;98.18;100723.84;1704818;83;98911;-59
2022/08/23 04:18:40;;;;;;;11.95;8.73;;;;;;;16.81;98.28;100733.31;1700566;83;25847;-60
2022/08/23 04:21:11;;;;;;;17.82;8.45;;;;;;;16.81;98.38;100730.61;1700558;83;99160;-59
2022/08/23 04:23:38;;;;;;;16.80;8.05;;;;;;;16.82;98.49;100732.34;1743398;81;26421;-59
2022/08/23 04:26:05;;;;;;;16.87;9.03;;;;;;;16.69;98.61;100705.23;1739231;80;27460;-59
2022/08/23 04:28:33;;;;;;;17.60;9.00;;;;;;;16.68;98.71;100695.38;1733384;81;98817;-59
2022/08/23 04:31:01;;;;;;;13.98;8.30;;;;;;;16.71;98.86;100698.36;1729072;81;25840;-59
2022/08/23 04:33:30;;;;;;;17.05;9.15;;;;;;;16.85;98.95;100718.59;1745620;80;99024;-60
2022/08/23 04:35:56;;;;;;;15.38;9.15;;;;;;;16.89;99.09;100721.48;1780689;80;25805;-59
2022/08/23 04:38:22;;;;;;;15.85;10.38;;;;;;;16.93;99.18;100717.59;1763241;80;27493;-59
2022/08/23 04:43:32;;;;;;;14.78;8.93;;;;;;;16.97;99.33;100712.34;1768109;80;26603;-59
2022/08/23 04:45:59;;;;;;;16.80;10.45;;;;;;;17.00;99.34;100720.25;1772256;80;98767;-61
2022/08/23 04:48:26;;;;;;;14.78;10.08;;;;;;;17.01;99.42;100713.86;1776605;80;25269;-58
2022/08/23 04:50:52;;;;;;;14.95;9.58;;;;;;;17.02;99.65;100712.89;1757228;80;99172;-59
2022/08/23 04:53:19;;;;;;;15.90;9.00;;;;;;;17.03;99.63;100720.05;1760133;80;25919;-61
2022/08/23 04:55:45;;;;;;;13.72;8.90;;;;;;;17.01;99.74;100721.13;1763079;80;26387;-62
2022/08/23 04:58:11;;;;;;;13.30;9.48;;;;;;;17.04;99.90;100719.56;1770030;79;98876;-61
2022/08/23 05:00:38;;;;;;;14.25;9.68;;;;;;;17.08;100.00;100723.79;1768195;80;26269;-61
2022/08/23 05:03:04;;;;;;;16.40;9.88;;;;;;;17.13;100.00;100729.27;1764592;80;99212;-59
2022/08/23 05:05:30;;;;;;;12.65;9.33;;;;;;;17.17;100.00;100731.28;1757819;80;25723;-59
2022/08/23 05:07:55;;;;;;;13.40;9.28;;;;;;;17.19;100.00;100722.07;1726242;82;25928;-59
2022/08/23 05:10:22;;;;;;;15.35;9.50;;;;;;;17.24;100.00;100721.75;1776552;80;99080;-59
2022/08/23 05:12:48;;;;;;;13.25;8.45;;;;;;;17.28;100.00;100716.98;1770939;80;25780;-59
2022/08/23 05:15:14;;;;;;;16.70;9.95;;;;;;;17.32;100.00;100725.28;1767748;80;99281;-59
2022/08/23 05:17:39;;;;;;;16.42;9.18;;;;;;;17.36;100.00;100729.51;1775024;80;27172;-59
2022/08/23 05:20:09;;;;;;;11.60;9.23;;;;;;;17.41;100.00;100731.41;1770317;79;25999;-59
2022/08/23 05:22:38;;;;;;;12.25;8.58;;;;;;;17.42;100.00;100728.59;1721613;81;99076;-59
2022/08/23 05:25:05;;;;;;;13.30;9.10;;;;;;;17.45;100.00;100732.92;1724150;82;25520;-59
2022/08/23 05:27:30;;;;;;;16.85;10.00;;;;;;;17.50;100.00;100726.69;1725961;82;99249;-61
2022/08/23 05:29:56;;;;;;;13.85;9.20;;;;;;;17.56;100.00;100719.48;1734597;82;25705;-59
2022/08/23 05:32:22;;;;;;;13.00;9.30;;;;;;;17.60;100.00;100718.28;1724680;82;25865;-59
2022/08/23 05:34:50;;;;;;;14.85;10.10;;;;;;;17.65;100.00;100713.41;1718998;82;99044;-59
2022/08/23 05:37:17;;;;;;;20.48;9.73;;;;;;;17.63;100.00;100702.30;1718504;81;25935;-60
2022/08/23 05:39:43;;;;;;;22.55;10.23;;;;;;;17.63;100.00;100684.19;1722936;82;98960;-59
2022/08/23 05:42:13;;;;;;;17.92;9.65;;;;;;;17.67;100.00;100692.51;1764084;80;25951;-60
2022/08/23 05:44:39;;;;;;;17.47;8.90;;;;;;;17.67;100.00;100697.06;1769749;80;25829;-60
2022/08/23 05:47:07;;;;;;;21.30;8.75;;;;;;;17.70;100.00;100696.84;1767347;80;98768;-60
2022/08/23 05:49:38;;;;;;;12.50;8.55;;;;;;;17.69;100.00;100702.75;1771486;80;26238;-60
2022/08/23 05:52:07;;;;;;;13.10;8.73;;;;;;;17.70;100.00;100700.42;1766979;80;99120;-60
2022/08/23 05:54:33;;;;;;;12.63;8.80;;;;;;;17.71;100.00;100691.31;1767149;79;25736;-60
2022/08/23 05:56:59;;;;;;;15.55;8.63;;;;;;;17.72;100.00;100707.09;1773140;80;99504;-59
2022/08/23 05:59:25;;;;;;;9.28;7.58;;;;;;;17.73;100.00;100710.17;1772773;80;25856;-59
2022/08/23 06:01:52;;;;;;;16.60;8.75;;;;;;;17.77;100.00;100724.76;1769476;80;25317;-59
2022/08/23 06:04:19;;;;;;;10.55;7.55;;;;;;;17.80;100.00;100715.53;1766848;80;98996;-61
2022/08/23 06:06:45;;;;;;;13.60;7.85;;;;;;;17.84;100.00;100729.25;1767031;80;26337;-60
2022/08/23 06:09:15;;;;;;;13.30;7.75;;;;;;;17.88;100.00;100731.25;1773422;80;99235;-61
2022/08/23 06:11:44;;;;;;;16.97;8.05;;;;;;;17.90;100.00;100723.38;1762724;80;27208;-60
2022/08/23 06:14:10;;;;;;;12.93;8.88;;;;;;;17.96;100.00;100717.52;1771458;80;26442;-59
2022/08/23 06:16:41;;;;;;;14.23;8.78;;;;;;;18.00;100.00;100718.16;1748229;79;99043;-60
2022/08/23 06:19:08;;;;;;;;;;;;;;;18.05;100.00;100718.20;1769101;80;25826;-59
2022/08/23 06:21:36;;;;;;;15.60;8.83;;;;;;;18.10;100.00;100723.28;1764257;80;84499;-59
2022/08/23 06:24:03;;;;;;;17.10;7.92;;;;;;;18.12;100.00;100726.75;1779084;79;25825;-61
2022/08/23 06:26:34;;;;;;;21.40;10.18;;;;;;;18.15;100.00;100730.11;1769775;80;25822;-59
2022/08/23 06:29:05;;;;;;;11.88;9.03;;;;;;;18.20;100.00;100732.48;1764895;79;99285;-59
2022/08/23 06:31:49;;;;;;;14.50;8.10;;;;;;;18.25;100.00;100727.55;1765894;80;25731;-59
2022/08/23 06:34:03;;;;;;;11.93;8.38;;;;;;;18.31;100.00;100735.73;1763326;80;99655;-59
2022/08/23 06:36:31;;;;;;;17.42;8.43;;;;;;;18.33;100.00;100731.05;1774133;80;26339;-60
2022/08/23 06:38:56;;;;;;;18.05;8.68;;;;;;;18.36;100.00;100728.11;1764800;80;99238;-59
2022/08/23 06:41:22;;;;;;;17.10;8.50;;;;;;;18.34;100.00;100726.00;1767295;80;27562;-60
2022/08/23 06:43:50;;;;;;;17.20;8.90;;;;;;;18.38;100.00;100725.66;1768572;80;25710;-59
2022/08/23 06:46:23;;;;;;;19.62;9.40;;;;;;;18.45;100.00;100729.65;1765138;80;99578;-60
2022/08/23 06:48:53;;;;;;;13.98;8.80;;;;;;;18.49;100.00;100724.37;1763933;80;25835;-59
2022/08/23 06:51:29;;;;;;;14.05;9.05;;;;;;;18.54;100.00;100724.52;1766354;80;99628;-60
2022/08/23 06:53:58;;;;;;;14.87;8.18;;;;;;;18.59;100.00;100729.10;1738170;81;27474;-61
2022/08/23 06:56:27;;;;;;;23.15;10.50;;;;;;;18.60;100.00;100743.05;1723611;82;26184;-61
2022/08/23 06:58:54;;;;;;;17.67;9.08;;;;;;;18.62;100.00;100737.05;1728755;82;99228;-61
2022/08/23 07:01:42;;;;;;;19.85;9.80;;;;;;;18.65;100.00;100746.32;1725381;82;26215;-61
2022/08/23 07:04:11;;;;;;;19.85;9.90;;;;;;;18.72;100.00;100739.45;1716733;82;99180;-60
2022/08/23 07:06:37;;;;;;;15.10;9.90;;;;;;;18.75;100.00;100743.28;1733985;82;28044;-60
2022/08/23 07:09:05;;;;;;;15.58;8.78;;;;;;;18.74;100.00;100744.27;1718998;82;99300;-61
2022/08/23 07:11:33;;;;;;;16.07;8.80;;;;;;;18.75;100.00;100746.00;1712856;82;25790;-59
2022/08/23 07:14:02;;;;;;;16.10;8.48;;;;;;;18.76;100.00;100753.17;1712365;82;25899;-60
2022/08/23 07:16:35;;;;;;;22.90;10.20;;;;;;;18.79;100.00;100748.86;1720625;82;99034;-59
2022/08/23 07:19:01;;;;;;;19.02;9.40;;;;;;;18.81;100.00;100751.84;1727113;82;27572;-59
2022/08/23 07:21:27;;;;;;;15.98;9.45;;;;;;;18.84;100.00;100762.09;1723822;82;99280;-59
2022/08/23 07:23:54;;;;;;;20.80;10.18;;;;;;;18.86;100.00;100761.48;1719762;81;26295;-59
2022/08/23 07:26:21;;;;;;;21.40;9.33;;;;;;;18.85;100.00;100763.33;1768736;79;25712;-59
2022/08/23 07:28:48;;;;;;;19.32;10.50;;;;;;;18.85;100.00;100763.83;1770146;79;99196;-59
2022/08/23 07:31:22;;;;;;;21.75;10.85;;;;;;;18.86;100.00;100763.70;1764433;80;26893;-61
2022/08/23 07:33:49;;;;;;;16.70;11.03;;;;;;;18.85;100.00;100763.33;1776786;80;99645;-59
2022/08/23 07:36:19;;;;;;;20.75;11.80;;;;;;;18.92;100.00;100765.09;1725747;81;26383;-59
2022/08/23 07:38:45;;;;;;;33.15;13.62;;;;;;;18.93;100.00;100773.13;1700739;83;25872;-59
2022/08/23 07:41:12;;;;;;;20.90;12.47;;;;;;;18.94;100.00;100773.99;1718516;82;99032;-60
2022/08/23 07:43:40;;;;;;;23.98;11.80;;;;;;;18.93;100.00;100777.20;1732742;82;27395;-60
2022/08/23 07:46:07;;;;;;;35.03;12.68;;;;;;;18.92;100.00;100779.54;1714542;82;99265;-60
2022/08/23 07:48:34;;;;;;;27.55;11.88;;;;;;;18.92;100.00;100782.75;1729064;82;25541;-61
2022/08/23 07:51:05;;;;;;;26.25;11.68;;;;;;;18.93;100.00;100777.20;1714290;82;99530;-62
2022/08/23 07:53:31;;;;;;;;;;;;;;;18.91;100.00;100781.02;1718021;82;25862;-61
2022/08/23 07:55:57;;;;;;;22.37;13.72;;;;;;;18.93;100.00;100789.42;1732420;81;27422;-59
2022/08/23 07:58:25;;;;;;;21.57;12.90;;;;;;;18.97;100.00;100784.12;1718645;82;99330;-61
2022/08/23 08:00:52;;;;;;;22.62;12.93;;;;;;;19.03;100.00;100791.81;1769111;80;26586;-60
2022/08/23 08:03:18;;;;;;;22.15;11.75;;;;;;;19.05;100.00;100798.00;1773175;80;99470;-64
2022/08/23 08:05:44;;;;;;;24.72;11.22;;;;;;;19.06;100.00;100795.66;1760577;80;25697;-61
2022/08/23 08:08:11;;;;;;;23.42;11.55;;;;;;;19.08;100.00;100795.54;1774923;80;27910;-60
2022/08/23 08:10:40;;;;;;;18.05;10.82;;;;;;;19.08;100.00;100797.77;1759996;80;99387;-61
2022/08/23 08:13:08;;;;;;;23.73;11.57;;;;;;;19.11;100.00;100798.89;1769098;80;26552;-60
2022/08/23 08:15:34;;;;;;;21.87;12.13;;;;;;;19.18;100.00;100795.20;1761864;80;99453;-61
2022/08/23 08:18:01;;;;;;;22.05;11.12;;;;;;;19.21;100.00;100799.55;1777232;80;26412;-61
2022/08/23 08:20:29;;;;;;;19.32;10.95;;;;;;;19.25;100.00;100799.19;1718224;81;27441;-60
2022/08/23 08:22:56;;;;;;;15.20;11.53;;;;;;;19.27;100.00;100804.50;1740872;81;99244;-61
2022/08/23 08:25:22;;;;;;;24.60;12.33;;;;;;;19.31;100.00;100806.87;1764515;80;26454;-60
2022/08/23 08:27:48;;;;;;;21.17;11.25;;;;;;;19.35;100.00;100803.42;1774619;80;99220;-63
2022/08/23 08:30:13;;;;;;;20.15;12.15;;;;;;;19.37;100.00;100806.89;1772739;80;25805;-61
2022/08/23 08:32:42;;;;;;;22.32;12.98;;;;;;;19.37;100.00;100814.55;1774539;80;27403;-62
2022/08/23 08:35:09;;;;;;;24.43;11.75;;;;;;;19.40;100.00;100822.47;1750337;80;99076;-62
2022/08/23 08:37:35;;;;;;;15.80;11.65;;;;;;;19.43;100.00;100815.44;1727160;81;26571;-62
2022/08/23 08:40:02;;;;;;;23.07;11.93;;;;;;;19.46;100.00;100810.25;1732594;80;99245;-63
2022/08/23 08:42:50;;;;;;;22.85;14.68;;;;;;;19.48;100.00;100815.08;1734623;81;26021;-62
2022/08/23 08:45:24;;;;;;;29.07;13.22;;;;;;;19.52;100.00;100817.96;1728220;81;99402;-63
2022/08/23 08:47:59;;;;;;;28.05;12.98;;;;;;;19.58;100.00;100820.20;1730213;81;25823;-61
2022/08/23 08:50:33;;;;;;;26.25;13.35;;;;;;;19.66;100.00;100815.52;1741011;81;25861;-60
2022/08/23 08:53:04;;;;;;;18.32;12.55;;;;;;;19.70;100.00;100815.16;1727019;81;99168;-60
2022/08/23 08:55:33;;;;;;;;;;;;;;;19.73;100.00;100820.86;1731202;80;25944;-61
2022/08/23 08:58:01;;;;;;;24.92;13.20;;;;;;;19.75;100.00;100818.39;1719836;81;84193;-61
2022/08/23 09:00:35;;;;;;;25.35;13.18;;;;;;;19.82;100.00;100824.70;1706619;81;25753;-62
2022/08/23 09:03:07;;;;;;;26.68;14.38;;;;;;;19.90;100.00;100830.41;1739199;81;99386;-62
2022/08/23 09:05:38;;;;;;;20.82;13.62;;;;;;;19.90;100.00;100829.05;1738697;81;25962;-60
2022/08/23 09:08:29;;;;;;;22.65;13.98;;;;;;;19.91;100.00;100834.36;1726253;81;25785;-61
2022/08/23 09:11:26;;;;;;;26.37;14.43;;;;;;;19.95;100.00;100822.74;1704475;83;99162;-60
2022/08/23 09:14:10;;;;;;;26.52;15.48;;;;;;;19.91;100.00;100830.28;1726248;81;25723;-60
2022/08/23 09:16:53;;;;;;;21.75;15.03;;;;;;;19.95;100.00;100831.77;1733132;81;99154;-60
2022/08/23 09:19:23;;;;;;;28.17;15.78;;;;;;;20.00;100.00;100831.41;1732164;81;26568;-61
2022/08/23 09:22:00;;;;;;;28.90;16.25;;;;;;;20.02;100.00;100831.66;1727306;81;99295;-61
2022/08/23 09:24:28;;;;;;;32.33;18.35;;;;;;;20.01;100.00;100831.78;1730578;81;27921;-61
2022/08/23 09:26:54;;;;;;;28.98;16.95;;;;;;;20.03;100.00;100833.39;1717502;83;99427;-61
2022/08/23 09:29:26;;;;;;;29.95;17.80;;;;;;;20.06;100.00;100832.28;1733172;81;25693;-61
2022/08/23 09:32:02;;;;;;;29.90;17.52;;;;;;;20.01;100.00;100836.73;1726364;81;26123;-61
2022/08/23 09:34:40;;;;;;;26.87;16.42;;;;;;;20.02;100.00;100836.23;1740019;80;99309;-60
2022/08/23 09:37:23;;;;;;;27.62;17.35;;;;;;;19.96;100.00;100826.70;1732303;81;28364;-61
2022/08/23 09:39:53;;;;;;;26.87;16.52;;;;;;;19.89;100.00;100835.47;1746015;81;99316;-61
2022/08/23 09:42:36;;;;;;;26.02;15.50;;;;;;;19.81;100.00;100838.80;1730029;82;25861;-61
2022/08/23 09:45:30;;;;;;;26.80;16.57;;;;;;;19.84;100.00;100837.20;1714073;82;99403;-61
2022/08/23 09:47:55;;;;;;;34.78;18.32;;;;;;;19.87;100.00;100838.81;1721665;82;25911;-61
2022/08/23 09:50:33;;;;;;;26.57;15.05;;;;;;;19.94;100.00;100844.14;1722605;82;27345;-61
2022/08/23 09:53:05;;;;;;;26.57;15.28;;;;;;;19.94;100.00;100843.64;1765071;80;99237;-61
2022/08/23 09:55:41;;;;;;;25.15;15.68;;;;;;;19.90;100.00;100842.65;1771853;80;26641;-60
2022/08/23 09:58:31;;;;;;;27.87;16.57;;;;;;;19.90;100.00;100841.28;1771418;80;99681;-61
2022/08/23 10:01:17;;;;;;;32.75;15.98;;;;;;;19.91;100.00;100843.89;1766603;80;25940;-63
2022/08/23 10:03:45;;;;;;;28.25;15.90;;;;;;;20.00;100.00;100840.93;1757306;80;99639;-60
2022/08/23 10:06:16;;;;;;;26.12;14.60;;;;;;;20.04;100.00;100847.86;1762971;80;25510;-60
2022/08/23 10:08:57;;;;;;;25.88;14.15;;;;;;;20.06;100.00;100852.69;1763819;80;26005;-60
2022/08/23 10:11:30;;;;;;;20.90;14.28;;;;;;;20.04;100.00;100852.81;1772740;80;99046;-61
2022/08/23 10:13:56;;;;;;;24.60;14.65;;;;;;;20.01;100.00;100862.58;1772643;80;25717;-64
2022/08/23 10:16:37;;;;;;;22.67;14.20;;;;;;;19.97;100.00;100859.73;1772714;80;99350;-60
2022/08/23 10:19:09;;;;;;;;;;;;;;;20.00;100.00;100866.78;1775915;80;25815;-60
2022/08/23 10:21:44;;;;;;;30.90;13.20;;;;;;;19.99;100.00;100865.91;1770457;79;84433;-60
2022/08/23 10:24:27;;;;;;;27.07;13.58;;;;;;;19.98;100.00;100861.95;1771867;80;26512;-61
2022/08/23 10:29:36;;;;;;;24.05;13.28;;;;;;;19.98;100.00;100862.81;1768944;80;26850;-61
2022/08/23 10:29:40;;;;;;;22.32;12.90;;;;;;;20.01;100.00;100866.66;1734985;81;99047;-62
2022/08/23 10:32:22;;;;;;;22.10;13.55;;;;;;;20.02;100.00;100857.50;1719440;82;26120;-61
2022/08/23 10:35:23;;;;;;;25.62;13.28;;;;;;;20.00;99.83;100864.06;1719043;81;99301;-61
2022/08/23 10:38:18;;;;;;;25.05;13.78;;;;;;;20.01;99.94;100864.43;1722029;81;25820;-61
2022/08/23 10:40:53;;;;;;;27.82;14.65;;;;;;;20.04;100.00;100861.47;1728953;82;99187;-61
2022/08/23 10:43:43;;;;;;;30.05;13.80;;;;;;;20.06;99.97;100862.21;1735378;81;27450;-60
2022/08/23 10:46:10;;;;;;;26.27;12.50;;;;;;;20.10;99.91;100858.26;1769425;80;99082;-60
2022/08/23 10:48:58;;;;;;;21.57;12.75;;;;;;;20.12;99.86;100852.69;1777663;79;26416;-60
2022/08/23 10:51:35;;;;;;;22.48;12.63;;;;;;;20.10;99.76;100850.96;1710906;81;99462;-59
2022/08/23 10:54:28;;;;;;;25.60;12.80;;;;;;;20.21;99.96;100847.88;1727011;82;25825;-59
2022/08/23 10:56:47;;;;;;;22.17;13.10;;;;;;;20.23;99.78;100850.84;1718870;82;27518;-60
2022/08/23 10:59:22;;;;;;;22.93;12.68;;;;;;;20.25;99.71;100842.55;1712099;82;99303;-60
2022/08/23 11:02:09;;;;;;;16.73;11.48;;;;;;;20.27;99.62;100847.37;1763274;80;25568;-60
2022/08/23 11:04:49;;;;;;;24.32;13.72;;;;;;;20.25;99.61;100845.28;1734236;81;99203;-60
2022/08/23 11:07:36;;;;;;;24.85;12.82;;;;;;;20.26;99.52;100842.92;1721799;81;25648;-61
2022/08/23 11:10:19;;;;;;;22.80;13.10;;;;;;;20.27;99.46;100851.47;1726038;82;99410;-61
2022/08/23 11:13:02;;;;;;;24.65;13.68;;;;;;;20.34;99.73;100845.41;1761265;80;25619;-61
2022/08/23 11:15:45;;;;;;;19.67;12.70;;;;;;;20.46;99.71;100852.23;1767057;79;99184;-61
2022/08/23 11:18:44;;;;;;;22.77;14.45;;;;;;;20.58;99.70;100846.66;1763024;79;25763;-60
2022/08/23 11:21:27;;;;;;;19.48;13.45;;;;;;;20.65;99.54;100847.02;1768834;80;25994;-60
2022/08/23 11:24:01;;;;;;;26.65;12.45;;;;;;;20.62;99.23;100845.91;1772444;80;98977;-60
2022/08/23 11:26:38;;;;;;;22.22;15.00;;;;;;;20.61;99.27;100840.95;1773544;80;26180;-62
2022/08/23 11:29:22;;;;;;;22.58;14.43;;;;;;;20.70;99.34;100840.20;1769384;80;99148;-61
2022/08/23 11:32:09;;;;;;;26.10;13.08;;;;;;;20.76;99.23;100836.59;1766027;80;26191;-61
2022/08/23 11:35:07;;;;;;;24.63;13.62;;;;;;;20.77;98.99;100836.97;1766054;79;99217;-60
2022/08/23 11:37:56;;;;;;;30.30;14.23;;;;;;;20.76;98.96;100843.41;1771680;80;27819;-61
2022/08/23 11:40:52;;;;;;;31.20;13.90;;;;;;;20.80;99.03;100841.66;1779745;78;98923;-61